sensor_id;sensor_type;location;lat;lon;timestamp;P1;durP1;ratioP1;P2;durP2;ratioP2
20621;SDS011;10470;42.670;23.354;2023-02-14T00:00:26;25.07;;;14.67;;
20621;SDS011;10470;42.670;23.354;2023-02-14T00:03:12;28.90;;;16.90;;
20621;SDS011;10470;42.670;23.354;2023-02-14T00:06:03;28.40;;;16.87;;
20621;SDS011;10470;42.670;23.354;2023-02-14T00:08:56;28.43;;;16.10;;
20621;SDS011;10470;42.670;23.354;2023-02-14T00:11:41;28.63;;;15.83;;
20621;SDS011;10470;42.670;23.354;2023-02-14T00:14:28;30.50;;;16.20;;
20621;SDS011;10470;42.670;23.354;2023-02-14T00:17:32;30.87;;;16.53;;
20621;SDS011;10470;42.670;23.354;2023-02-14T00:20:17;27.20;;;15.83;;
20621;SDS011;10470;42.670;23.354;2023-02-14T00:23:03;26.13;;;15.43;;
20621;SDS011;10470;42.670;23.354;2023-02-14T00:25:48;29.70;;;17.40;;
20621;SDS011;10470;42.670;23.354;2023-02-14T00:28:34;27.97;;;16.47;;
20621;SDS011;10470;42.670;23.354;2023-02-14T00:31:19;24.80;;;13.00;;
20621;SDS011;10470;42.670;23.354;2023-02-14T00:34:05;29.37;;;16.13;;
20621;SDS011;10470;42.670;23.354;2023-02-14T00:36:51;26.67;;;15.80;;
20621;SDS011;10470;42.670;23.354;2023-02-14T00:39:37;25.63;;;14.77;;
20621;SDS011;10470;42.670;23.354;2023-02-14T00:42:22;30.90;;;17.37;;
20621;SDS011;10470;42.670;23.354;2023-02-14T00:45:08;28.40;;;16.57;;
20621;SDS011;10470;42.670;23.354;2023-02-14T00:47:54;27.70;;;16.40;;
20621;SDS011;10470;42.670;23.354;2023-02-14T00:50:39;28.00;;;16.27;;
20621;SDS011;10470;42.670;23.354;2023-02-14T00:53:24;24.17;;;13.30;;
20621;SDS011;10470;42.670;23.354;2023-02-14T00:56:10;25.93;;;16.67;;
20621;SDS011;10470;42.670;23.354;2023-02-14T00:58:56;27.73;;;16.57;;
20621;SDS011;10470;42.670;23.354;2023-02-14T01:01:42;23.87;;;14.10;;
20621;SDS011;10470;42.670;23.354;2023-02-14T01:04:27;27.20;;;16.33;;
20621;SDS011;10470;42.670;23.354;2023-02-14T01:07:13;30.80;;;17.43;;
20621;SDS011;10470;42.670;23.354;2023-02-14T01:09:58;26.60;;;15.30;;
20621;SDS011;10470;42.670;23.354;2023-02-14T01:12:44;30.07;;;17.13;;
20621;SDS011;10470;42.670;23.354;2023-02-14T01:15:29;28.23;;;17.00;;
20621;SDS011;10470;42.670;23.354;2023-02-14T01:18:16;26.47;;;14.57;;
20621;SDS011;10470;42.670;23.354;2023-02-14T01:24:01;30.30;;;17.87;;
20621;SDS011;10470;42.670;23.354;2023-02-14T01:26:49;31.63;;;18.57;;
20621;SDS011;10470;42.670;23.354;2023-02-14T01:29:34;28.17;;;17.47;;
20621;SDS011;10470;42.670;23.354;2023-02-14T01:32:19;30.07;;;17.93;;
20621;SDS011;10470;42.670;23.354;2023-02-14T01:35:05;25.03;;;14.40;;
20621;SDS011;10470;42.670;23.354;2023-02-14T01:37:51;32.03;;;17.73;;
20621;SDS011;10470;42.670;23.354;2023-02-14T01:40:41;29.70;;;17.87;;
20621;SDS011;10470;42.670;23.354;2023-02-14T01:43:27;25.03;;;13.70;;
20621;SDS011;10470;42.670;23.354;2023-02-14T01:46:13;29.53;;;16.73;;
20621;SDS011;10470;42.670;23.354;2023-02-14T01:49:21;28.77;;;16.23;;
20621;SDS011;10470;42.670;23.354;2023-02-14T01:52:11;17.60;;;9.57;;
20621;SDS011;10470;42.670;23.354;2023-02-14T01:55:02;27.57;;;17.50;;
20621;SDS011;10470;42.670;23.354;2023-02-14T01:57:53;28.80;;;16.10;;
20621;SDS011;10470;42.670;23.354;2023-02-14T02:00:43;21.43;;;12.73;;
20621;SDS011;10470;42.670;23.354;2023-02-14T02:04:06;20.67;;;12.77;;
20621;SDS011;10470;42.670;23.354;2023-02-14T02:06:53;29.23;;;18.07;;
20621;SDS011;10470;42.670;23.354;2023-02-14T02:10:03;28.67;;;17.60;;
20621;SDS011;10470;42.670;23.354;2023-02-14T02:12:49;29.97;;;17.30;;
20621;SDS011;10470;42.670;23.354;2023-02-14T02:25:30;29.13;;;16.83;;
20621;SDS011;10470;42.670;23.354;2023-02-14T02:34:57;29.13;;;15.03;;
20621;SDS011;10470;42.670;23.354;2023-02-14T02:38:00;28.23;;;15.63;;
20621;SDS011;10470;42.670;23.354;2023-02-14T02:41:51;31.07;;;17.97;;
20621;SDS011;10470;42.670;23.354;2023-02-14T02:50:28;30.53;;;16.87;;
20621;SDS011;10470;42.670;23.354;2023-02-14T02:53:41;30.07;;;16.93;;
20621;SDS011;10470;42.670;23.354;2023-02-14T02:56:36;29.73;;;16.37;;
20621;SDS011;10470;42.670;23.354;2023-02-14T02:59:34;31.27;;;17.10;;
20621;SDS011;10470;42.670;23.354;2023-02-14T03:02:27;26.03;;;14.40;;
20621;SDS011;10470;42.670;23.354;2023-02-14T03:05:16;26.63;;;16.73;;
20621;SDS011;10470;42.670;23.354;2023-02-14T03:08:03;29.13;;;16.23;;
20621;SDS011;10470;42.670;23.354;2023-02-14T03:10:49;28.03;;;15.83;;
20621;SDS011;10470;42.670;23.354;2023-02-14T03:16:40;29.03;;;16.33;;
20621;SDS011;10470;42.670;23.354;2023-02-14T03:19:59;28.43;;;15.83;;
20621;SDS011;10470;42.670;23.354;2023-02-14T03:23:08;27.43;;;14.73;;
20621;SDS011;10470;42.670;23.354;2023-02-14T03:32:02;26.70;;;14.73;;
20621;SDS011;10470;42.670;23.354;2023-02-14T03:34:59;22.53;;;13.63;;
20621;SDS011;10470;42.670;23.354;2023-02-14T03:41:00;28.27;;;15.27;;
20621;SDS011;10470;42.670;23.354;2023-02-14T03:43:50;27.97;;;16.23;;
20621;SDS011;10470;42.670;23.354;2023-02-14T03:46:40;24.33;;;12.50;;
20621;SDS011;10470;42.670;23.354;2023-02-14T03:49:35;29.07;;;16.07;;
20621;SDS011;10470;42.670;23.354;2023-02-14T03:52:24;27.57;;;16.07;;
20621;SDS011;10470;42.670;23.354;2023-02-14T03:55:13;30.40;;;16.40;;
20621;SDS011;10470;42.670;23.354;2023-02-14T03:58:04;26.63;;;14.30;;
20621;SDS011;10470;42.670;23.354;2023-02-14T04:00:57;27.83;;;15.80;;
20621;SDS011;10470;42.670;23.354;2023-02-14T04:03:46;24.03;;;13.60;;
20621;SDS011;10470;42.670;23.354;2023-02-14T04:06:33;27.50;;;14.40;;
20621;SDS011;10470;42.670;23.354;2023-02-14T04:09:19;27.50;;;15.40;;
20621;SDS011;10470;42.670;23.354;2023-02-14T04:12:05;26.70;;;13.97;;
20621;SDS011;10470;42.670;23.354;2023-02-14T04:14:50;27.13;;;14.40;;
20621;SDS011;10470;42.670;23.354;2023-02-14T04:17:36;28.90;;;15.17;;
20621;SDS011;10470;42.670;23.354;2023-02-14T04:20:40;26.60;;;14.40;;
20621;SDS011;10470;42.670;23.354;2023-02-14T04:23:25;25.23;;;13.87;;
20621;SDS011;10470;42.670;23.354;2023-02-14T04:26:11;25.90;;;15.27;;
20621;SDS011;10470;42.670;23.354;2023-02-14T04:28:56;27.57;;;15.03;;
20621;SDS011;10470;42.670;23.354;2023-02-14T04:31:41;25.60;;;14.00;;
20621;SDS011;10470;42.670;23.354;2023-02-14T04:34:27;26.17;;;13.73;;
20621;SDS011;10470;42.670;23.354;2023-02-14T04:37:12;24.27;;;13.37;;
20621;SDS011;10470;42.670;23.354;2023-02-14T04:40:00;27.10;;;14.27;;
20621;SDS011;10470;42.670;23.354;2023-02-14T04:42:45;28.87;;;15.10;;
20621;SDS011;10470;42.670;23.354;2023-02-14T04:45:31;24.10;;;13.10;;
20621;SDS011;10470;42.670;23.354;2023-02-14T04:48:16;20.73;;;12.33;;
20621;SDS011;10470;42.670;23.354;2023-02-14T04:51:02;21.67;;;12.37;;
20621;SDS011;10470;42.670;23.354;2023-02-14T04:53:48;23.10;;;12.77;;
20621;SDS011;10470;42.670;23.354;2023-02-14T04:56:33;22.63;;;13.07;;
20621;SDS011;10470;42.670;23.354;2023-02-14T04:59:19;20.97;;;12.23;;
20621;SDS011;10470;42.670;23.354;2023-02-14T05:02:04;27.20;;;14.07;;
20621;SDS011;10470;42.670;23.354;2023-02-14T05:04:50;21.53;;;11.23;;
20621;SDS011;10470;42.670;23.354;2023-02-14T05:07:35;23.80;;;13.73;;
20621;SDS011;10470;42.670;23.354;2023-02-14T05:10:21;20.43;;;12.23;;
20621;SDS011;10470;42.670;23.354;2023-02-14T05:13:06;25.57;;;13.20;;
20621;SDS011;10470;42.670;23.354;2023-02-14T05:15:51;23.47;;;14.23;;
20621;SDS011;10470;42.670;23.354;2023-02-14T05:18:37;27.80;;;14.03;;
20621;SDS011;10470;42.670;23.354;2023-02-14T05:21:22;22.53;;;13.47;;
20621;SDS011;10470;42.670;23.354;2023-02-14T05:24:08;25.87;;;13.33;;
20621;SDS011;10470;42.670;23.354;2023-02-14T05:26:53;19.70;;;11.17;;
20621;SDS011;10470;42.670;23.354;2023-02-14T05:29:39;22.87;;;13.37;;
20621;SDS011;10470;42.670;23.354;2023-02-14T05:32:24;21.27;;;13.03;;
20621;SDS011;10470;42.670;23.354;2023-02-14T05:35:10;23.37;;;11.60;;
20621;SDS011;10470;42.670;23.354;2023-02-14T05:37:55;26.50;;;14.10;;
20621;SDS011;10470;42.670;23.354;2023-02-14T05:40:41;22.73;;;13.83;;
20621;SDS011;10470;42.670;23.354;2023-02-14T05:43:27;26.33;;;13.80;;
20621;SDS011;10470;42.670;23.354;2023-02-14T05:46:14;18.67;;;11.13;;
20621;SDS011;10470;42.670;23.354;2023-02-14T05:48:59;25.07;;;14.60;;
20621;SDS011;10470;42.670;23.354;2023-02-14T05:51:45;25.30;;;14.90;;
20621;SDS011;10470;42.670;23.354;2023-02-14T05:54:30;23.67;;;13.60;;
20621;SDS011;10470;42.670;23.354;2023-02-14T05:57:15;22.07;;;12.30;;
20621;SDS011;10470;42.670;23.354;2023-02-14T06:00:03;21.77;;;13.33;;
20621;SDS011;10470;42.670;23.354;2023-02-14T06:02:50;28.47;;;15.23;;
20621;SDS011;10470;42.670;23.354;2023-02-14T06:05:35;24.47;;;12.93;;
20621;SDS011;10470;42.670;23.354;2023-02-14T06:08:21;27.33;;;15.47;;
20621;SDS011;10470;42.670;23.354;2023-02-14T06:11:07;23.20;;;14.47;;
20621;SDS011;10470;42.670;23.354;2023-02-14T06:13:52;23.73;;;13.43;;
20621;SDS011;10470;42.670;23.354;2023-02-14T06:16:37;24.20;;;14.20;;
20621;SDS011;10470;42.670;23.354;2023-02-14T06:19:23;25.20;;;13.77;;
20621;SDS011;10470;42.670;23.354;2023-02-14T06:22:08;25.17;;;14.57;;
20621;SDS011;10470;42.670;23.354;2023-02-14T06:24:54;20.83;;;12.73;;
20621;SDS011;10470;42.670;23.354;2023-02-14T06:27:39;26.07;;;14.13;;
20621;SDS011;10470;42.670;23.354;2023-02-14T06:30:25;23.20;;;13.23;;
20621;SDS011;10470;42.670;23.354;2023-02-14T06:33:11;27.80;;;14.67;;
20621;SDS011;10470;42.670;23.354;2023-02-14T06:35:57;29.87;;;16.03;;
20621;SDS011;10470;42.670;23.354;2023-02-14T06:38:42;27.80;;;14.90;;
20621;SDS011;10470;42.670;23.354;2023-02-14T06:41:28;26.00;;;15.40;;
20621;SDS011;10470;42.670;23.354;2023-02-14T06:44:13;28.50;;;15.30;;
20621;SDS011;10470;42.670;23.354;2023-02-14T06:46:58;28.83;;;16.90;;
20621;SDS011;10470;42.670;23.354;2023-02-14T06:49:44;32.17;;;17.90;;
20621;SDS011;10470;42.670;23.354;2023-02-14T06:52:33;26.17;;;15.07;;
20621;SDS011;10470;42.670;23.354;2023-02-14T06:55:19;24.13;;;13.17;;
20621;SDS011;10470;42.670;23.354;2023-02-14T06:58:04;30.83;;;15.53;;
20621;SDS011;10470;42.670;23.354;2023-02-14T07:00:50;26.20;;;14.77;;
20621;SDS011;10470;42.670;23.354;2023-02-14T07:03:35;29.97;;;16.77;;
20621;SDS011;10470;42.670;23.354;2023-02-14T07:06:20;27.47;;;14.27;;
20621;SDS011;10470;42.670;23.354;2023-02-14T07:09:06;28.30;;;16.20;;
20621;SDS011;10470;42.670;23.354;2023-02-14T07:11:51;28.27;;;16.17;;
20621;SDS011;10470;42.670;23.354;2023-02-14T07:14:37;29.37;;;15.87;;
20621;SDS011;10470;42.670;23.354;2023-02-14T07:17:22;26.73;;;14.73;;
20621;SDS011;10470;42.670;23.354;2023-02-14T07:20:08;25.00;;;13.77;;
20621;SDS011;10470;42.670;23.354;2023-02-14T07:22:55;26.23;;;14.83;;
20621;SDS011;10470;42.670;23.354;2023-02-14T07:25:40;24.30;;;12.53;;
20621;SDS011;10470;42.670;23.354;2023-02-14T07:28:26;25.10;;;14.70;;
20621;SDS011;10470;42.670;23.354;2023-02-14T07:31:11;30.67;;;15.37;;
20621;SDS011;10470;42.670;23.354;2023-02-14T07:33:57;28.80;;;15.77;;
20621;SDS011;10470;42.670;23.354;2023-02-14T07:36:44;25.67;;;12.83;;
20621;SDS011;10470;42.670;23.354;2023-02-14T07:39:30;26.70;;;13.93;;
20621;SDS011;10470;42.670;23.354;2023-02-14T07:42:16;26.13;;;12.83;;
20621;SDS011;10470;42.670;23.354;2023-02-14T07:45:01;27.07;;;14.53;;
20621;SDS011;10470;42.670;23.354;2023-02-14T07:47:48;28.27;;;15.40;;
20621;SDS011;10470;42.670;23.354;2023-02-14T07:50:35;28.17;;;16.07;;
20621;SDS011;10470;42.670;23.354;2023-02-14T07:53:21;31.17;;;16.20;;
20621;SDS011;10470;42.670;23.354;2023-02-14T07:56:06;29.67;;;15.07;;
20621;SDS011;10470;42.670;23.354;2023-02-14T07:58:52;23.63;;;14.07;;
20621;SDS011;10470;42.670;23.354;2023-02-14T08:01:37;28.97;;;15.17;;
20621;SDS011;10470;42.670;23.354;2023-02-14T08:04:23;29.97;;;15.33;;
20621;SDS011;10470;42.670;23.354;2023-02-14T08:07:11;32.17;;;16.47;;
20621;SDS011;10470;42.670;23.354;2023-02-14T08:09:56;29.43;;;16.03;;
20621;SDS011;10470;42.670;23.354;2023-02-14T08:12:42;28.87;;;16.27;;
20621;SDS011;10470;42.670;23.354;2023-02-14T08:15:42;27.93;;;15.43;;
20621;SDS011;10470;42.670;23.354;2023-02-14T08:18:46;32.20;;;17.03;;
20621;SDS011;10470;42.670;23.354;2023-02-14T08:21:32;19.10;;;9.23;;
20621;SDS011;10470;42.670;23.354;2023-02-14T08:24:17;30.13;;;16.80;;
20621;SDS011;10470;42.670;23.354;2023-02-14T08:27:03;27.37;;;15.80;;
20621;SDS011;10470;42.670;23.354;2023-02-14T08:29:48;30.30;;;16.50;;
20621;SDS011;10470;42.670;23.354;2023-02-14T08:32:34;29.80;;;15.40;;
20621;SDS011;10470;42.670;23.354;2023-02-14T08:35:19;29.33;;;16.07;;
20621;SDS011;10470;42.670;23.354;2023-02-14T08:38:05;30.40;;;16.27;;
20621;SDS011;10470;42.670;23.354;2023-02-14T08:40:51;25.93;;;15.17;;
20621;SDS011;10470;42.670;23.354;2023-02-14T08:43:36;25.87;;;12.33;;
20621;SDS011;10470;42.670;23.354;2023-02-14T08:46:22;27.40;;;14.67;;
20621;SDS011;10470;42.670;23.354;2023-02-14T08:49:08;28.77;;;14.63;;
20621;SDS011;10470;42.670;23.354;2023-02-14T08:51:54;29.40;;;15.30;;
20621;SDS011;10470;42.670;23.354;2023-02-14T08:54:39;28.90;;;14.33;;
20621;SDS011;10470;42.670;23.354;2023-02-14T08:57:25;29.90;;;14.17;;
20621;SDS011;10470;42.670;23.354;2023-02-14T09:00:11;18.63;;;9.77;;
20621;SDS011;10470;42.670;23.354;2023-02-14T09:02:57;27.63;;;15.27;;
20621;SDS011;10470;42.670;23.354;2023-02-14T09:05:43;24.43;;;13.57;;
20621;SDS011;10470;42.670;23.354;2023-02-14T09:08:28;28.33;;;14.50;;
20621;SDS011;10470;42.670;23.354;2023-02-14T09:11:16;26.03;;;13.10;;
20621;SDS011;10470;42.670;23.354;2023-02-14T09:14:04;20.17;;;11.30;;
20621;SDS011;10470;42.670;23.354;2023-02-14T09:16:50;16.40;;;9.37;;
20621;SDS011;10470;42.670;23.354;2023-02-14T09:19:35;25.63;;;13.23;;
20621;SDS011;10470;42.670;23.354;2023-02-14T09:22:21;27.03;;;12.83;;
20621;SDS011;10470;42.670;23.354;2023-02-14T09:25:07;29.20;;;14.80;;
20621;SDS011;10470;42.670;23.354;2023-02-14T09:27:53;29.33;;;14.53;;
20621;SDS011;10470;42.670;23.354;2023-02-14T09:30:38;29.70;;;15.63;;
20621;SDS011;10470;42.670;23.354;2023-02-14T09:33:27;33.47;;;16.13;;
20621;SDS011;10470;42.670;23.354;2023-02-14T09:36:33;28.50;;;13.37;;
20621;SDS011;10470;42.670;23.354;2023-02-14T09:39:18;29.30;;;14.17;;
20621;SDS011;10470;42.670;23.354;2023-02-14T09:42:09;23.67;;;11.30;;
20621;SDS011;10470;42.670;23.354;2023-02-14T09:45:00;30.73;;;14.13;;
20621;SDS011;10470;42.670;23.354;2023-02-14T09:48:02;34.20;;;16.27;;
20621;SDS011;10470;42.670;23.354;2023-02-14T09:50:55;27.50;;;12.83;;
20621;SDS011;10470;42.670;23.354;2023-02-14T09:59:38;29.30;;;12.73;;
20621;SDS011;10470;42.670;23.354;2023-02-14T10:05:39;34.60;;;16.13;;
20621;SDS011;10470;42.670;23.354;2023-02-14T10:11:23;28.17;;;12.97;;
20621;SDS011;10470;42.670;23.354;2023-02-14T10:14:22;27.57;;;13.60;;
20621;SDS011;10470;42.670;23.354;2023-02-14T10:17:19;35.97;;;16.50;;
20621;SDS011;10470;42.670;23.354;2023-02-14T10:20:19;24.60;;;12.70;;
20621;SDS011;10470;42.670;23.354;2023-02-14T10:26:08;26.63;;;13.50;;
20621;SDS011;10470;42.670;23.354;2023-02-14T10:29:10;24.60;;;13.00;;
20621;SDS011;10470;42.670;23.354;2023-02-14T10:32:00;23.00;;;11.70;;
20621;SDS011;10470;42.670;23.354;2023-02-14T10:34:47;26.30;;;12.43;;
20621;SDS011;10470;42.670;23.354;2023-02-14T10:44:03;23.53;;;13.03;;
20621;SDS011;10470;42.670;23.354;2023-02-14T10:50:14;22.83;;;12.63;;
20621;SDS011;10470;42.670;23.354;2023-02-14T10:53:14;22.00;;;12.90;;
20621;SDS011;10470;42.670;23.354;2023-02-14T10:58:58;24.00;;;12.47;;
20621;SDS011;10470;42.670;23.354;2023-02-14T11:01:52;19.33;;;10.93;;
20621;SDS011;10470;42.670;23.354;2023-02-14T11:04:40;17.03;;;10.07;;
20621;SDS011;10470;42.670;23.354;2023-02-14T11:07:27;25.47;;;12.97;;
20621;SDS011;10470;42.670;23.354;2023-02-14T11:10:13;23.37;;;12.77;;
20621;SDS011;10470;42.670;23.354;2023-02-14T11:13:01;16.70;;;9.20;;
20621;SDS011;10470;42.670;23.354;2023-02-14T11:15:47;16.60;;;10.73;;
20621;SDS011;10470;42.670;23.354;2023-02-14T11:18:36;19.73;;;11.60;;
20621;SDS011;10470;42.670;23.354;2023-02-14T11:21:24;20.60;;;11.90;;
20621;SDS011;10470;42.670;23.354;2023-02-14T11:27:16;21.00;;;12.47;;
20621;SDS011;10470;42.670;23.354;2023-02-14T11:30:10;18.97;;;10.47;;
20621;SDS011;10470;42.670;23.354;2023-02-14T11:33:02;18.43;;;11.13;;
20621;SDS011;10470;42.670;23.354;2023-02-14T11:35:49;17.17;;;10.20;;
20621;SDS011;10470;42.670;23.354;2023-02-14T11:38:37;16.60;;;10.07;;
20621;SDS011;10470;42.670;23.354;2023-02-14T11:41:24;20.10;;;11.37;;
20621;SDS011;10470;42.670;23.354;2023-02-14T11:44:13;10.17;;;7.27;;
20621;SDS011;10470;42.670;23.354;2023-02-14T11:47:23;18.07;;;11.50;;
20621;SDS011;10470;42.670;23.354;2023-02-14T11:50:21;20.83;;;10.63;;
20621;SDS011;10470;42.670;23.354;2023-02-14T11:53:09;23.47;;;13.37;;
20621;SDS011;10470;42.670;23.354;2023-02-14T11:55:57;20.87;;;12.57;;
20621;SDS011;10470;42.670;23.354;2023-02-14T12:01:35;19.73;;;11.30;;
20621;SDS011;10470;42.670;23.354;2023-02-14T12:04:26;19.50;;;11.50;;
20621;SDS011;10470;42.670;23.354;2023-02-14T12:07:25;19.33;;;9.77;;
20621;SDS011;10470;42.670;23.354;2023-02-14T12:13:00;20.30;;;10.77;;
20621;SDS011;10470;42.670;23.354;2023-02-14T12:16:03;17.03;;;10.60;;
20621;SDS011;10470;42.670;23.354;2023-02-14T12:19:07;16.80;;;9.63;;
20621;SDS011;10470;42.670;23.354;2023-02-14T12:22:02;14.07;;;8.03;;
20621;SDS011;10470;42.670;23.354;2023-02-14T12:24:58;15.10;;;7.83;;
20621;SDS011;10470;42.670;23.354;2023-02-14T12:27:59;15.37;;;8.90;;
20621;SDS011;10470;42.670;23.354;2023-02-14T12:30:49;18.37;;;10.70;;
20621;SDS011;10470;42.670;23.354;2023-02-14T12:33:34;18.23;;;11.03;;
20621;SDS011;10470;42.670;23.354;2023-02-14T12:42:11;20.53;;;11.33;;
20621;SDS011;10470;42.670;23.354;2023-02-14T12:48:46;18.47;;;10.97;;
20621;SDS011;10470;42.670;23.354;2023-02-14T13:13:08;17.73;;;10.97;;
20621;SDS011;10470;42.670;23.354;2023-02-14T13:19:11;14.70;;;9.33;;
20621;SDS011;10470;42.670;23.354;2023-02-14T13:21:58;16.73;;;10.43;;
20621;SDS011;10470;42.670;23.354;2023-02-14T13:24:46;13.20;;;8.90;;
20621;SDS011;10470;42.670;23.354;2023-02-14T13:27:35;19.57;;;11.60;;
20621;SDS011;10470;42.670;23.354;2023-02-14T13:30:26;17.57;;;12.03;;
20621;SDS011;10470;42.670;23.354;2023-02-14T13:36:25;18.13;;;10.93;;
20621;SDS011;10470;42.670;23.354;2023-02-14T13:39:15;18.60;;;11.77;;
20621;SDS011;10470;42.670;23.354;2023-02-14T13:42:09;18.60;;;11.87;;
20621;SDS011;10470;42.670;23.354;2023-02-14T13:44:55;15.70;;;10.13;;
20621;SDS011;10470;42.670;23.354;2023-02-14T13:47:40;17.50;;;11.47;;
20621;SDS011;10470;42.670;23.354;2023-02-14T13:50:26;20.33;;;12.03;;
20621;SDS011;10470;42.670;23.354;2023-02-14T13:53:12;16.67;;;10.70;;
20621;SDS011;10470;42.670;23.354;2023-02-14T13:56:30;18.27;;;11.97;;
20621;SDS011;10470;42.670;23.354;2023-02-14T13:59:24;19.07;;;10.63;;
20621;SDS011;10470;42.670;23.354;2023-02-14T14:11:50;20.97;;;13.07;;
20621;SDS011;10470;42.670;23.354;2023-02-14T14:17:04;20.70;;;12.30;;
20621;SDS011;10470;42.670;23.354;2023-02-14T14:20:49;18.60;;;11.33;;
20621;SDS011;10470;42.670;23.354;2023-02-14T14:23:28;18.03;;;11.83;;
20621;SDS011;10470;42.670;23.354;2023-02-14T14:26:35;26.33;;;12.73;;
20621;SDS011;10470;42.670;23.354;2023-02-14T14:32:16;19.37;;;11.67;;
20621;SDS011;10470;42.670;23.354;2023-02-14T14:35:14;19.73;;;11.87;;
20621;SDS011;10470;42.670;23.354;2023-02-14T14:38:02;10.40;;;6.60;;
20621;SDS011;10470;42.670;23.354;2023-02-14T14:40:47;22.13;;;12.70;;
20621;SDS011;10470;42.670;23.354;2023-02-14T14:43:34;17.90;;;11.57;;
20621;SDS011;10470;42.670;23.354;2023-02-14T14:46:23;22.13;;;12.00;;
20621;SDS011;10470;42.670;23.354;2023-02-14T14:49:09;21.17;;;12.60;;
20621;SDS011;10470;42.670;23.354;2023-02-14T14:51:56;21.37;;;12.40;;
20621;SDS011;10470;42.670;23.354;2023-02-14T14:54:41;14.07;;;9.50;;
20621;SDS011;10470;42.670;23.354;2023-02-14T14:57:27;20.23;;;11.80;;
20621;SDS011;10470;42.670;23.354;2023-02-14T15:06:29;20.20;;;12.17;;
20621;SDS011;10470;42.670;23.354;2023-02-14T15:09:12;16.97;;;10.70;;
20621;SDS011;10470;42.670;23.354;2023-02-14T15:12:00;16.23;;;8.63;;
20621;SDS011;10470;42.670;23.354;2023-02-14T15:15:06;19.27;;;11.00;;
20621;SDS011;10470;42.670;23.354;2023-02-14T15:17:54;18.10;;;11.07;;
20621;SDS011;10470;42.670;23.354;2023-02-14T15:20:40;20.00;;;12.03;;
20621;SDS011;10470;42.670;23.354;2023-02-14T15:23:26;22.67;;;12.77;;
20621;SDS011;10470;42.670;23.354;2023-02-14T15:26:16;20.67;;;12.67;;
20621;SDS011;10470;42.670;23.354;2023-02-14T15:29:06;23.90;;;11.93;;
20621;SDS011;10470;42.670;23.354;2023-02-14T15:31:52;17.37;;;10.80;;
20621;SDS011;10470;42.670;23.354;2023-02-14T15:34:41;21.63;;;13.07;;
20621;SDS011;10470;42.670;23.354;2023-02-14T15:37:26;24.90;;;16.23;;
20621;SDS011;10470;42.670;23.354;2023-02-14T15:40:16;20.67;;;13.73;;
20621;SDS011;10470;42.670;23.354;2023-02-14T15:49:29;22.17;;;12.97;;
20621;SDS011;10470;42.670;23.354;2023-02-14T15:52:17;19.47;;;12.47;;
20621;SDS011;10470;42.670;23.354;2023-02-14T15:55:03;19.77;;;12.03;;
20621;SDS011;10470;42.670;23.354;2023-02-14T15:58:02;19.33;;;12.20;;
20621;SDS011;10470;42.670;23.354;2023-02-14T16:00:50;19.70;;;12.60;;
20621;SDS011;10470;42.670;23.354;2023-02-14T16:03:41;24.03;;;12.60;;
20621;SDS011;10470;42.670;23.354;2023-02-14T16:06:37;23.17;;;13.00;;
20621;SDS011;10470;42.670;23.354;2023-02-14T16:09:26;24.20;;;13.07;;
20621;SDS011;10470;42.670;23.354;2023-02-14T16:17:59;23.93;;;12.80;;
20621;SDS011;10470;42.670;23.354;2023-02-14T16:20:48;26.93;;;13.57;;
20621;SDS011;10470;42.670;23.354;2023-02-14T16:23:35;23.53;;;13.23;;
20621;SDS011;10470;42.670;23.354;2023-02-14T16:26:21;23.63;;;12.73;;
20621;SDS011;10470;42.670;23.354;2023-02-14T16:29:10;21.37;;;12.20;;
20621;SDS011;10470;42.670;23.354;2023-02-14T16:31:58;24.67;;;13.80;;
20621;SDS011;10470;42.670;23.354;2023-02-14T16:34:44;24.53;;;13.27;;
20621;SDS011;10470;42.670;23.354;2023-02-14T16:37:31;19.37;;;12.30;;
20621;SDS011;10470;42.670;23.354;2023-02-14T16:40:18;19.33;;;12.50;;
20621;SDS011;10470;42.670;23.354;2023-02-14T16:43:15;28.57;;;12.80;;
20621;SDS011;10470;42.670;23.354;2023-02-14T16:46:02;20.33;;;13.27;;
20621;SDS011;10470;42.670;23.354;2023-02-14T16:48:48;17.17;;;11.17;;
20621;SDS011;10470;42.670;23.354;2023-02-14T16:51:36;17.17;;;11.30;;
20621;SDS011;10470;42.670;23.354;2023-02-14T16:54:26;22.97;;;13.10;;
20621;SDS011;10470;42.670;23.354;2023-02-14T16:57:16;15.17;;;9.83;;
20621;SDS011;10470;42.670;23.354;2023-02-14T17:00:04;20.17;;;11.93;;
20621;SDS011;10470;42.670;23.354;2023-02-14T17:02:53;17.13;;;9.83;;
20621;SDS011;10470;42.670;23.354;2023-02-14T17:05:48;20.57;;;12.60;;
20621;SDS011;10470;42.670;23.354;2023-02-14T17:08:34;22.70;;;13.07;;
20621;SDS011;10470;42.670;23.354;2023-02-14T17:11:20;17.17;;;10.90;;
20621;SDS011;10470;42.670;23.354;2023-02-14T17:14:07;24.80;;;15.10;;
20621;SDS011;10470;42.670;23.354;2023-02-14T17:16:54;22.93;;;12.57;;
20621;SDS011;10470;42.670;23.354;2023-02-14T17:19:42;17.80;;;10.50;;
20621;SDS011;10470;42.670;23.354;2023-02-14T17:22:28;21.80;;;12.37;;
20621;SDS011;10470;42.670;23.354;2023-02-14T17:25:13;18.40;;;10.83;;
20621;SDS011;10470;42.670;23.354;2023-02-14T17:27:59;16.93;;;11.13;;
20621;SDS011;10470;42.670;23.354;2023-02-14T17:30:45;20.20;;;12.27;;
20621;SDS011;10470;42.670;23.354;2023-02-14T17:33:31;21.27;;;12.67;;
20621;SDS011;10470;42.670;23.354;2023-02-14T17:36:17;23.90;;;13.97;;
20621;SDS011;10470;42.670;23.354;2023-02-14T17:39:03;22.63;;;13.73;;
20621;SDS011;10470;42.670;23.354;2023-02-14T17:41:49;19.73;;;11.93;;
20621;SDS011;10470;42.670;23.354;2023-02-14T17:44:34;19.53;;;12.77;;
20621;SDS011;10470;42.670;23.354;2023-02-14T17:47:21;17.47;;;10.87;;
20621;SDS011;10470;42.670;23.354;2023-02-14T17:50:07;18.83;;;12.33;;
20621;SDS011;10470;42.670;23.354;2023-02-14T17:52:56;19.47;;;12.23;;
20621;SDS011;10470;42.670;23.354;2023-02-14T17:55:41;21.17;;;11.93;;
20621;SDS011;10470;42.670;23.354;2023-02-14T17:58:26;26.50;;;13.10;;
20621;SDS011;10470;42.670;23.354;2023-02-14T18:01:12;19.53;;;12.47;;
20621;SDS011;10470;42.670;23.354;2023-02-14T18:03:59;19.83;;;12.43;;
20621;SDS011;10470;42.670;23.354;2023-02-14T18:06:45;22.17;;;13.33;;
20621;SDS011;10470;42.670;23.354;2023-02-14T18:09:30;22.33;;;12.63;;
20621;SDS011;10470;42.670;23.354;2023-02-14T18:12:16;22.33;;;13.10;;
20621;SDS011;10470;42.670;23.354;2023-02-14T18:15:02;21.97;;;13.10;;
20621;SDS011;10470;42.670;23.354;2023-02-14T18:17:48;20.63;;;12.57;;
20621;SDS011;10470;42.670;23.354;2023-02-14T18:20:34;20.73;;;12.60;;
20621;SDS011;10470;42.670;23.354;2023-02-14T18:23:20;22.23;;;12.67;;
20621;SDS011;10470;42.670;23.354;2023-02-14T18:26:06;21.13;;;13.20;;
20621;SDS011;10470;42.670;23.354;2023-02-14T18:28:54;22.33;;;13.37;;
20621;SDS011;10470;42.670;23.354;2023-02-14T18:31:41;22.07;;;13.40;;
20621;SDS011;10470;42.670;23.354;2023-02-14T18:34:27;19.10;;;11.10;;
20621;SDS011;10470;42.670;23.354;2023-02-14T18:37:13;22.37;;;13.43;;